Sturgis, MI

4:16 AM EST on December 11, 2019 (GMT -0500)
Kirsch Municipal

Weather History for KIRS - October, 2019

Change the Weather History Date:

Friday, October 18, 2019

  Actual Average (WUND) Record (WUND)
Temperature  
Mean Temperature 46 °F -  
Max Temperature 57 °F - - (-1)
Min Temperature 34 °F - - (-1)
Degree Days  
Heating Degree Days 20    
Moisture  
Dew Point 35 °F    
Average Humidity 67    
Maximum Humidity 90    
Minimum Humidity 38    
Precipitation  
Precipitation 0.00 in - - ()
Sea Level Pressure  
Sea Level Pressure 30.04 in    
Wind  
Wind Speed 2 mph ()    
Max Wind Speed 9 mph    
Max Gust Speed -    
Visibility 9.7 miles    
Events      
Averages and records for this station are not official NWS values.
T = Trace of Precipitation, MM = Missing Value Source: Averaged Metar Reports

Daily Weather History Graph

Daily Weather History Graph

Search for Another Location

Airport or City:

Astronomy

Oct. 18, 2019 Rise Set
Actual Time 7:57 AM EDT 6:55 PM EDT
Civil Twilight 7:29 AM EDT 7:24 PM EDT
Nautical Twilight 6:56 AM EDT 7:56 PM EDT
Astronomical Twilight 6:24 AM EDT 8:28 PM EDT
Moon 10:08 PM EDT (10/18) 12:32 PM EDT (10/18)
Length of Visible Light 11h 55m
Length of Day
10h 58m
Waning Gibbous, 79% of the Moon is Illuminated
Oct 18
Waning Gibbous
Oct 21
Last Quarter
Oct 27
New
Nov 4
First Quarter
Nov 12
Full

Hourly Weather History & Observations

Time (EDT) Temp. Windchill Dew Point Humidity Pressure Visibility Wind Dir Wind Speed Gust Speed Precip Events Conditions
12:18 AM 43.7 °F - 39.7 °F 86% 30.03 in 10.0 mi Calm Calm - N/A   Clear
12:36 AM 43.0 °F - 39.4 °F 87% 30.02 in 10.0 mi Calm Calm - N/A   Clear
12:55 AM 41.5 °F - 38.3 °F 88% 30.02 in 10.0 mi Calm Calm - N/A   Clear
1:15 AM 39.6 °F - 36.5 °F 89% 30.02 in 10.0 mi Calm Calm - N/A   Clear
1:39 AM 39.7 °F - 36.5 °F 88% 30.03 in 10.0 mi Calm Calm - N/A   Clear
1:57 AM 39.4 °F - 36.5 °F 89% 30.03 in 4.0 mi Calm Calm - N/A   Clear
2:15 AM 38.5 °F - 35.4 °F 89% 30.03 in 4.0 mi Calm Calm - N/A   Clear
2:35 AM 38.7 °F - 35.6 °F 89% 30.03 in 4.0 mi Calm Calm - N/A   Clear
2:55 AM 38.1 °F - 35.1 °F 89% 30.04 in 7.0 mi Calm Calm - N/A   Clear
3:00 AM 38.1 °F - 35.1 °F 89% 30.04 in 7.0 mi Calm Calm - N/A   Clear
3:18 AM 36.9 °F - 33.8 °F 89% 30.04 in 10.0 mi Calm Calm - N/A   Clear
3:36 AM 36.7 °F - 33.6 °F 89% 30.04 in 10.0 mi Calm Calm - N/A   Clear
3:55 AM 36.0 °F - 32.9 °F 89% 30.04 in 10.0 mi Calm Calm - N/A   Clear
4:15 AM 36.0 °F - 32.9 °F 89% 30.04 in 10.0 mi Calm Calm - N/A   Clear
4:16 AM 35.6 °F - 32.5 °F 89% 30.04 in 10.0 mi Calm Calm - N/A   Clear
4:39 AM 35.6 °F - 32.5 °F 89% 30.04 in 10.0 mi Calm Calm - N/A   Clear
4:57 AM 36.1 °F - 33.1 °F 89% 30.05 in 10.0 mi Calm Calm - N/A   Clear
5:15 AM 35.6 °F - 32.5 °F 89% 30.06 in 10.0 mi Calm Calm - N/A   Clear
5:16 AM 35.6 °F - 32.5 °F 89% 30.06 in 10.0 mi Calm Calm - N/A   Clear
5:35 AM 36.7 °F - 33.8 °F 89% 30.07 in 10.0 mi Calm Calm - N/A   Clear
5:36 AM 36.9 °F - 33.8 °F 89% 30.07 in 10.0 mi Calm Calm - N/A   Clear
5:55 AM 35.8 °F - 32.7 °F 89% 30.07 in 10.0 mi Calm Calm - N/A   Clear
6:18 AM 36.3 °F - 33.1 °F 88% 30.07 in 10.0 mi Calm Calm - N/A   Clear
6:36 AM 35.8 °F - 32.9 °F 89% 30.08 in 10.0 mi Calm Calm - N/A   Clear
6:55 AM 35.1 °F - 32.2 °F 89% 30.09 in 10.0 mi Calm Calm - N/A   Clear
6:56 AM 34.9 °F - 32.0 °F 89% 30.09 in 10.0 mi Calm Calm - N/A   Clear
7:15 AM 35.8 °F - 32.7 °F 89% 30.09 in 10.0 mi Calm Calm - N/A   Clear
7:39 AM 36.9 °F - 33.8 °F 89% 30.09 in 10.0 mi Calm Calm - N/A   Clear
7:57 AM 34.2 °F 31.2 °F 31.6 °F 90% 30.09 in 10.0 mi ENE 3.5 mph - N/A   Clear
8:15 AM 34.7 °F - 32.0 °F 90% 30.09 in 10.0 mi Calm Calm - N/A   Clear
8:16 AM 34.9 °F - 32.0 °F 89% 30.09 in 10.0 mi Calm Calm - N/A   Clear
8:35 AM 35.2 °F - 32.2 °F 89% 30.10 in 10.0 mi Calm Calm - N/A   Clear
8:55 AM 36.0 °F - 32.9 °F 89% 30.10 in 10.0 mi Calm Calm - N/A   Clear
9:18 AM 40.1 °F - 37.0 °F 89% 30.11 in 10.0 mi Calm Calm - N/A   Clear
9:36 AM 42.4 °F - 38.3 °F 85% 30.11 in 10.0 mi Calm Calm - N/A   Clear
9:55 AM 45.3 °F - 37.8 °F 75% 30.12 in 10.0 mi Calm Calm - N/A   Clear
10:15 AM 46.8 °F - 36.3 °F 67% 30.12 in 10.0 mi ESE 4.6 mph - N/A   Clear
10:16 AM 46.9 °F - 36.3 °F 67% 30.12 in 10.0 mi ESE 4.6 mph - N/A   Clear
10:35 AM 48.0 °F - 35.4 °F 62% 30.11 in 10.0 mi East 5.8 mph - N/A   Clear
10:58 AM 49.5 °F - 35.2 °F 58% 30.10 in 10.0 mi East 5.8 mph - N/A   Clear
11:16 AM 50.2 °F - 34.5 °F 55% 30.10 in 10.0 mi East 4.6 mph - N/A   Clear
11:35 AM 50.4 °F - 32.7 °F 51% 30.10 in 10.0 mi Calm Calm - N/A   Clear
11:36 AM 50.2 °F - 32.7 °F 51% 30.10 in 10.0 mi ESE 3.5 mph - N/A   Clear
11:55 AM 51.1 °F - 33.3 °F 51% 30.10 in 10.0 mi Calm Calm - N/A   Clear
11:56 AM 51.1 °F - 33.1 °F 50% 30.10 in 10.0 mi Calm Calm - N/A   Clear
12:19 PM 51.8 °F - 33.4 °F 50% 30.09 in 10.0 mi South 4.6 mph - N/A   Clear
12:37 PM 52.3 °F - 32.5 °F 47% 30.09 in 10.0 mi ESE 3.5 mph - N/A   Clear
12:55 PM 53.2 °F - 34.2 °F 48% 30.08 in 10.0 mi South 5.8 mph - N/A   Clear
12:56 PM 53.2 °F - 34.0 °F 48% 30.08 in 10.0 mi South 5.8 mph - N/A   Clear
1:15 PM 54.1 °F - 33.3 °F 45% 30.07 in 10.0 mi SE 4.6 mph - N/A   Clear
1:35 PM 54.5 °F - 33.4 °F 45% 30.07 in 10.0 mi ESE 4.6 mph - N/A   Clear
1:58 PM 55.4 °F - 32.7 °F 42% 30.05 in 10.0 mi South 8.1 mph - N/A   Clear
2:16 PM 55.9 °F - 32.7 °F 41% 30.04 in 10.0 mi SW 3.5 mph - N/A   Clear
2:35 PM 55.8 °F - 32.9 °F 42% 30.04 in 10.0 mi Calm Calm - N/A   Clear
2:36 PM 55.6 °F - 32.5 °F 42% 30.04 in 10.0 mi SE 4.6 mph - N/A   Clear
2:55 PM 56.5 °F - 32.5 °F 40% 30.04 in 10.0 mi Calm Calm - N/A   Clear
3:19 PM 57.2 °F - 33.3 °F 40% 30.03 in 10.0 mi SSE 3.5 mph - N/A   Clear
3:37 PM 57.4 °F - 33.8 °F 41% 30.03 in 10.0 mi SSE 3.5 mph - N/A   Clear
3:55 PM 57.7 °F - 33.3 °F 40% 30.03 in 10.0 mi SSW 3.5 mph - N/A   Clear
3:56 PM 57.7 °F - 33.1 °F 39% 30.03 in 10.0 mi SSW 5.8 mph - N/A   Clear
4:15 PM 57.7 °F - 32.7 °F 39% 30.02 in 10.0 mi SSW 8.1 mph - N/A   Clear
4:16 PM 57.7 °F - 32.9 °F 39% 30.02 in 10.0 mi SSW 6.9 mph - N/A   Clear
4:35 PM 57.9 °F - 32.5 °F 38% 30.02 in 10.0 mi SSE 4.6 mph - N/A   Clear
4:58 PM 57.6 °F - 33.3 °F 40% 30.01 in 10.0 mi South 9.2 mph - N/A   Clear
5:16 PM 57.2 °F - 33.3 °F 40% 30.01 in 10.0 mi SSW 5.8 mph - N/A   Clear
5:35 PM 57.0 °F - 34.2 °F 42% 30.01 in 10.0 mi SSW 5.8 mph - N/A   Clear
5:36 PM 57.0 °F - 33.8 °F 42% 30.01 in 10.0 mi SSW 5.8 mph - N/A   Clear
5:55 PM 56.5 °F - 34.5 °F 44% 30.01 in 10.0 mi South 4.6 mph - N/A   Clear
5:56 PM 56.3 °F - 34.2 °F 43% 30.01 in 10.0 mi South 3.5 mph - N/A   Clear
6:19 PM 55.2 °F - 35.4 °F 47% 30.01 in 10.0 mi South 3.5 mph - N/A   Clear
6:37 PM 54.0 °F - 36.0 °F 51% 30.00 in 10.0 mi SSE 3.5 mph - N/A   Clear
6:55 PM 53.1 °F - 35.6 °F 52% 29.99 in 10.0 mi SSE 4.6 mph - N/A   Clear
6:56 PM 53.1 °F - 35.6 °F 52% 29.99 in 10.0 mi SSE 4.6 mph - N/A   Clear
7:15 PM 51.6 °F - 35.4 °F 54% 29.99 in 10.0 mi SSE 4.6 mph - N/A   Clear
7:16 PM 51.4 °F - 35.4 °F 54% 29.99 in 10.0 mi SE 4.6 mph - N/A   Clear
7:35 PM 50.9 °F - 36.0 °F 57% 29.99 in 10.0 mi SE 5.8 mph - N/A   Clear
7:58 PM 49.1 °F - 36.7 °F 62% 29.99 in 10.0 mi SE 4.6 mph - N/A   Clear
8:16 PM 49.6 °F - 37.0 °F 62% 29.99 in 10.0 mi SE 5.8 mph - N/A   Clear
8:35 PM 48.6 °F - 36.9 °F 64% 29.99 in 10.0 mi SE 4.6 mph - N/A   Clear
8:36 PM 48.4 °F - 36.9 °F 64% 29.99 in 10.0 mi SE 4.6 mph - N/A   Clear
8:55 PM 48.4 °F - 36.9 °F 64% 29.99 in 10.0 mi SE 5.8 mph - N/A   Clear
9:19 PM 47.5 °F - 36.5 °F 66% 29.99 in 10.0 mi SE 4.6 mph - N/A   Clear
9:37 PM 47.7 °F - 36.7 °F 66% 29.99 in 10.0 mi SE 5.8 mph - N/A   Clear
9:55 PM 48.2 °F - 36.5 °F 64% 29.99 in 10.0 mi SE 5.8 mph - N/A   Clear
9:56 PM 48.2 °F - 36.5 °F 64% 29.99 in 10.0 mi SE 4.6 mph - N/A   Clear
10:15 PM 48.0 °F - 36.5 °F 64% 29.99 in 10.0 mi SE 6.9 mph - N/A   Clear
10:35 PM 47.1 °F - 36.5 °F 67% 29.99 in 10.0 mi SE 4.6 mph - N/A   Clear
10:58 PM 46.8 °F - 36.5 °F 67% 29.99 in 10.0 mi SSE 6.9 mph - N/A   Clear
11:16 PM 46.6 °F - 36.5 °F 68% 29.99 in 10.0 mi SE 6.9 mph - N/A   Clear
11:55 PM 46.0 °F 42.5 °F 36.5 °F 69% 29.98 in 10.0 mi SE 6.9 mph - N/A   Clear